Saturday, July 30, 2016, 4:37 PM EDT

KJYO, Leesburg / Godfrey

Location: Leesburg, VA, United States Lat: 39.083
Local Time: 4:37 PM EDT (20:37 GMT) Lon: -77.567
Time Zone: US/Eastern Elev: 390 ft

Show me the last for .
Show Decoded

2016-07-30 15:50 METAR KJYO 301950Z AUTO 17009G19KT 10SM BKN033 BKN038 31/24 A2991 RMK AO2 LTG
                 DSNT N AND NW =
2016-07-30 15:35 METAR KJYO 301935Z AUTO 17013G21KT 10SM BKN034 BKN043 32/24 A2992 RMK AO2 LTG
                 DSNT W THRU N =
2016-07-30 15:15 METAR KJYO 301915Z AUTO 18016G22KT 10SM BKN032 BKN038 BKN044 32/23 A2993 RMK AO2
                 =
2016-07-30 14:55 METAR KJYO 301855Z AUTO 18017G22KT 10SM SCT032 32/24 A2993 RMK AO2 LTG DSNT SW
                 AND W =
2016-07-30 14:35 METAR KJYO 301835Z AUTO 16013G21KT 10SM BKN032 31/23 A2994 RMK AO2 =
2016-07-30 14:15 METAR KJYO 301815Z AUTO 17014G22KT 10SM BKN030 BKN037 31/24 A2995 RMK AO2 =
2016-07-30 13:55 METAR KJYO 301755Z AUTO 16011G20KT 140V200 10SM BKN028 31/24 A2996 RMK AO2 =
2016-07-30 13:35 METAR KJYO 301735Z AUTO 18017KT 10SM SCT028 BKN100 31/23 A2997 RMK AO2 LTG DSNT
                 S =
2016-07-30 13:15 METAR KJYO 301715Z AUTO 18017G20KT 10SM BKN026 31/23 A2998 RMK AO2 =
2016-07-30 12:55 METAR KJYO 301655Z AUTO 18015G21KT 10SM SCT022 SCT027 31/25 A2998 RMK AO2 =
2016-07-30 12:35 METAR KJYO 301635Z AUTO 18016G24KT 10SM SCT028 SCT047 BKN055 30/23 A2998 RMK AO2
                 =
2016-07-30 12:15 METAR KJYO 301615Z AUTO 20016KT 10SM BKN030 BKN036 BKN047 31/24 A2998 RMK AO2 =
2016-07-30 11:55 METAR KJYO 301555Z AUTO 19016G19KT 10SM SCT028 BKN033 BKN039 31/24 A2998 RMK AO2
                 =
2016-07-30 11:35 METAR KJYO 301535Z AUTO 19014KT 10SM BKN028 BKN034 OVC120 30/24 A2998 RMK AO2 =
2016-07-30 11:15 METAR KJYO 301515Z AUTO 17010G18KT 10SM SCT028 SCT034 OVC045 30/24 A2999 RMK AO2
                 LTG DSNT S =
2016-07-30 10:55 METAR KJYO 301455Z AUTO 17014G21KT 10SM SCT032 BKN047 OVC060 30/24 A2999 RMK AO2
                 =
2016-07-30 10:35 METAR KJYO 301435Z AUTO 18010G17KT 10SM BKN042 BKN055 OVC065 29/23 A2999 RMK AO2
                 =
2016-07-30 10:15 METAR KJYO 301415Z AUTO 19011G17KT 10SM SCT034 BKN040 OVC060 29/24 A2999 RMK AO2
                 =
2016-07-30 09:55 METAR KJYO 301355Z AUTO 17009KT 10SM BKN036 BKN042 OVC060 28/24 A2999 RMK AO2 =
2016-07-30 09:35 METAR KJYO 301335Z AUTO 19008KT 10SM BKN039 OVC046 27/24 A2999 RMK AO2 LTG DSNT
                 SW =
2016-07-30 09:15 METAR KJYO 301315Z AUTO 21009KT 10SM SCT011 BKN043 OVC050 27/25 A3000 RMK AO2 =
2016-07-30 08:55 METAR KJYO 301255Z AUTO 17007KT 10SM BKN043 BKN049 26/25 A2999 RMK AO2 =
2016-07-30 08:35 METAR KJYO 301235Z AUTO 19008KT 10SM SCT043 25/24 A2999 RMK AO2 =
2016-07-30 08:15 METAR KJYO 301215Z AUTO 17007KT 10SM CLR 25/24 A2999 RMK AO2 =
2016-07-30 07:55 METAR KJYO 301155Z AUTO 20008KT 10SM CLR 25/24 A2999 RMK AO2 =
2016-07-30 07:35 METAR KJYO 301135Z AUTO 19004KT 10SM CLR 24/24 A2999 RMK AO2 =
2016-07-30 07:15 METAR KJYO 301115Z AUTO 00000KT 7SM CLR 23/23 A2999 RMK AO2 =
2016-07-30 06:55 METAR KJYO 301055Z AUTO 00000KT 10SM CLR 23/23 A2998 RMK AO2 =
2016-07-30 06:35 METAR KJYO 301035Z AUTO 15003KT 10SM SCT120 23/23 A2997 RMK AO2 =
2016-07-30 06:15 METAR KJYO 301015Z AUTO 03006KT 10SM CLR 23/23 A2996 RMK AO2 =
2016-07-30 05:55 METAR KJYO 300955Z AUTO 29008KT 7SM CLR 23/23 A2996 RMK AO2 =
2016-07-30 05:35 METAR KJYO 300935Z AUTO 00000KT 10SM CLR 23/23 A2995 RMK AO2 =
2016-07-30 05:15 METAR KJYO 300915Z AUTO 00000KT 10SM CLR 24/23 A2995 RMK AO2 =
2016-07-30 04:55 METAR KJYO 300855Z AUTO 19003KT 10SM CLR 23/23 A2995 RMK AO2 =
2016-07-30 04:35 METAR KJYO 300835Z AUTO 03004KT 10SM CLR 23/23 A2995 RMK AO2 =
2016-07-30 04:15 METAR KJYO 300815Z AUTO 00000KT 7SM CLR 23/23 A2994 RMK AO2 =
2016-07-30 03:55 METAR KJYO 300755Z AUTO 00000KT 10SM CLR 23/23 A2993 RMK AO2 =
2016-07-30 03:35 METAR KJYO 300735Z AUTO 19003KT 10SM CLR 23/23 A2994 RMK AO2 =
2016-07-30 03:15 METAR KJYO 300715Z AUTO 00000KT 10SM CLR 23/23 A2994 RMK AO2 =
2016-07-30 02:55 METAR KJYO 300655Z AUTO 00000KT 10SM CLR 23/23 A2995 RMK AO2 =
2016-07-30 02:35 METAR KJYO 300635Z AUTO 22006KT 10SM CLR 24/23 A2995 RMK AO2 =
2016-07-30 02:15 METAR KJYO 300615Z AUTO 21009KT 10SM CLR 24/23 A2995 RMK AO2 =
2016-07-30 01:55 METAR KJYO 300555Z AUTO 19004KT 10SM CLR 24/23 A2995 RMK AO2 =
2016-07-30 01:35 METAR KJYO 300535Z AUTO 22009KT 10SM CLR 24/23 A2995 RMK AO2 =
2016-07-30 01:15 METAR KJYO 300515Z AUTO 22003KT 10SM CLR 25/23 A2996 RMK AO2 =
2016-07-30 00:55 METAR KJYO 300455Z AUTO 22003KT 10SM CLR 25/23 A2996 RMK AO2 =
2016-07-30 00:35 METAR KJYO 300435Z AUTO 24004KT 10SM CLR 24/23 A2996 RMK AO2 =
2016-07-30 00:15 METAR KJYO 300415Z AUTO 23003KT 10SM CLR 25/23 A2995 RMK AO2 =
2016-07-29 23:55 METAR KJYO 300355Z AUTO 23004KT 10SM CLR 25/23 A2995 RMK AO2 =
2016-07-29 23:35 METAR KJYO 300335Z AUTO 23004KT 10SM CLR 25/23 A2995 RMK AO2 =
2016-07-29 23:15 METAR KJYO 300315Z AUTO 24003KT 10SM CLR 25/23 A2995 RMK AO2 =
2016-07-29 22:55 METAR KJYO 300255Z AUTO 22006KT 10SM CLR 25/24 A2995 RMK AO2 =
2016-07-29 22:35 METAR KJYO 300235Z AUTO 25003KT 10SM CLR 25/24 A2995 RMK AO2 =
2016-07-29 22:15 METAR KJYO 300215Z AUTO 24003KT 10SM CLR 26/24 A2995 RMK AO2 =
2016-07-29 21:55 METAR KJYO 300155Z AUTO 00000KT 10SM CLR 26/24 A2994 RMK AO2 =
2016-07-29 21:35 METAR KJYO 300135Z AUTO 00000KT 10SM CLR 26/25 A2994 RMK AO2 =
2016-07-29 21:15 METAR KJYO 300115Z AUTO 00000KT 10SM CLR 26/24 A2993 RMK AO2 =
2016-07-29 20:55 METAR KJYO 300055Z AUTO 00000KT 10SM CLR 28/23 A2992 RMK AO2 =
2016-07-29 20:35 METAR KJYO 300035Z AUTO 25003KT 10SM CLR 29/23 A2992 RMK AO2 =
2016-07-29 20:15 METAR KJYO 300015Z AUTO 00000KT 10SM CLR 29/22 A2992 RMK AO2 =
2016-07-29 19:35 METAR KJYO 292335Z AUTO 23003KT 10SM CLR 31/23 A2991 RMK AO2 =
2016-07-29 19:15 METAR KJYO 292315Z AUTO 23004KT 10SM CLR 31/22 A2991 RMK AO2 =
2016-07-29 18:55 METAR KJYO 292255Z AUTO 26003KT 10SM CLR 32/22 A2990 RMK AO2 =
2016-07-29 18:35 METAR KJYO 292235Z AUTO 24005KT 10SM CLR 32/22 A2990 RMK AO2 =
2016-07-29 18:15 METAR KJYO 292215Z AUTO 27005KT 10SM CLR 32/22 A2990 RMK AO2 =
2016-07-29 17:55 METAR KJYO 292155Z AUTO 29003KT 10SM CLR 32/22 A2990 RMK AO2 =
2016-07-29 17:35 METAR KJYO 292135Z AUTO 29005KT 10SM CLR 32/22 A2990 RMK AO2 =
2016-07-29 17:15 METAR KJYO 292115Z AUTO 29005G15KT 10SM SCT065 SCT075 32/22 A2990 RMK AO2 =
2016-07-29 16:55 METAR KJYO 292055Z AUTO 25005G15KT 220V300 10SM SCT046 SCT060 32/22 A2990 RMK
                 AO2 =

Support USWX by starting your Amazon purchase here.